sensor_id;sensor_type;location;lat;lon;timestamp;P1;durP1;ratioP1;P2;durP2;ratioP2
9108;SDS011;4590;51.462;6.692;2022-09-23T00:01:26;4.23;;;1.40;;
9108;SDS011;4590;51.462;6.692;2022-09-23T00:03:51;4.13;;;1.47;;
9108;SDS011;4590;51.462;6.692;2022-09-23T00:06:18;4.00;;;1.60;;
9108;SDS011;4590;51.462;6.692;2022-09-23T00:08:45;4.85;;;1.40;;
9108;SDS011;4590;51.462;6.692;2022-09-23T00:11:14;3.50;;;1.60;;
9108;SDS011;4590;51.462;6.692;2022-09-23T00:13:51;3.83;;;1.55;;
9108;SDS011;4590;51.462;6.692;2022-09-23T00:16:20;3.40;;;1.70;;
9108;SDS011;4590;51.462;6.692;2022-09-23T00:18:48;3.38;;;1.45;;
9108;SDS011;4590;51.462;6.692;2022-09-23T00:21:14;2.72;;;1.38;;
9108;SDS011;4590;51.462;6.692;2022-09-23T00:23:41;3.58;;;1.33;;
9108;SDS011;4590;51.462;6.692;2022-09-23T00:26:09;3.85;;;1.45;;
9108;SDS011;4590;51.462;6.692;2022-09-23T00:28:36;2.92;;;1.30;;
9108;SDS011;4590;51.462;6.692;2022-09-23T00:31:02;2.83;;;1.40;;
9108;SDS011;4590;51.462;6.692;2022-09-23T00:33:32;4.07;;;1.90;;
9108;SDS011;4590;51.462;6.692;2022-09-23T00:35:58;4.03;;;1.70;;
9108;SDS011;4590;51.462;6.692;2022-09-23T00:38:25;6.13;;;1.50;;
9108;SDS011;4590;51.462;6.692;2022-09-23T00:40:50;3.67;;;1.43;;
9108;SDS011;4590;51.462;6.692;2022-09-23T00:43:15;4.27;;;1.30;;
9108;SDS011;4590;51.462;6.692;2022-09-23T00:45:42;2.60;;;1.52;;
9108;SDS011;4590;51.462;6.692;2022-09-23T00:48:13;4.72;;;2.03;;
9108;SDS011;4590;51.462;6.692;2022-09-23T00:50:42;2.45;;;1.55;;
9108;SDS011;4590;51.462;6.692;2022-09-23T00:53:12;4.72;;;2.17;;
9108;SDS011;4590;51.462;6.692;2022-09-23T00:55:52;4.38;;;1.80;;
9108;SDS011;4590;51.462;6.692;2022-09-23T00:58:23;2.38;;;1.33;;
9108;SDS011;4590;51.462;6.692;2022-09-23T01:00:52;2.03;;;1.10;;
9108;SDS011;4590;51.462;6.692;2022-09-23T01:03:17;3.25;;;1.67;;
9108;SDS011;4590;51.462;6.692;2022-09-23T01:05:43;4.30;;;1.33;;
9108;SDS011;4590;51.462;6.692;2022-09-23T01:08:10;3.00;;;1.42;;
9108;SDS011;4590;51.462;6.692;2022-09-23T01:10:42;3.83;;;1.48;;
9108;SDS011;4590;51.462;6.692;2022-09-23T01:13:17;3.03;;;1.75;;
9108;SDS011;4590;51.462;6.692;2022-09-23T01:21:29;3.95;;;1.40;;
9108;SDS011;4590;51.462;6.692;2022-09-23T01:24:04;2.95;;;1.45;;
9108;SDS011;4590;51.462;6.692;2022-09-23T01:26:55;3.22;;;1.38;;
9108;SDS011;4590;51.462;6.692;2022-09-23T01:37:19;3.05;;;1.33;;
9108;SDS011;4590;51.462;6.692;2022-09-23T01:39:52;3.90;;;1.40;;
9108;SDS011;4590;51.462;6.692;2022-09-23T01:42:41;3.17;;;1.52;;
9108;SDS011;4590;51.462;6.692;2022-09-23T01:45:21;2.78;;;1.20;;
9108;SDS011;4590;51.462;6.692;2022-09-23T01:50:50;3.25;;;1.55;;
9108;SDS011;4590;51.462;6.692;2022-09-23T01:53:22;3.17;;;1.60;;
9108;SDS011;4590;51.462;6.692;2022-09-23T01:55:50;5.30;;;1.67;;
9108;SDS011;4590;51.462;6.692;2022-09-23T01:58:25;2.95;;;1.50;;
9108;SDS011;4590;51.462;6.692;2022-09-23T02:01:03;2.88;;;1.58;;
9108;SDS011;4590;51.462;6.692;2022-09-23T02:06:54;2.70;;;1.27;;
9108;SDS011;4590;51.462;6.692;2022-09-23T02:09:24;3.63;;;1.77;;
9108;SDS011;4590;51.462;6.692;2022-09-23T02:11:58;3.33;;;1.73;;
9108;SDS011;4590;51.462;6.692;2022-09-23T02:14:30;3.63;;;1.75;;
9108;SDS011;4590;51.462;6.692;2022-09-23T02:17:04;5.10;;;1.63;;
9108;SDS011;4590;51.462;6.692;2022-09-23T02:19:36;3.00;;;1.40;;
9108;SDS011;4590;51.462;6.692;2022-09-23T02:22:10;5.13;;;2.05;;
9108;SDS011;4590;51.462;6.692;2022-09-23T02:24:40;2.95;;;1.50;;
9108;SDS011;4590;51.462;6.692;2022-09-23T02:29:57;3.80;;;1.60;;
9108;SDS011;4590;51.462;6.692;2022-09-23T02:35:32;3.00;;;1.60;;
9108;SDS011;4590;51.462;6.692;2022-09-23T02:46:18;2.92;;;1.30;;
9108;SDS011;4590;51.462;6.692;2022-09-23T02:51:13;5.15;;;1.80;;
9108;SDS011;4590;51.462;6.692;2022-09-23T02:53:38;3.13;;;1.42;;
9108;SDS011;4590;51.462;6.692;2022-09-23T02:56:14;3.23;;;1.30;;
9108;SDS011;4590;51.462;6.692;2022-09-23T02:58:42;4.93;;;1.30;;
9108;SDS011;4590;51.462;6.692;2022-09-23T03:04:10;1.35;;;0.88;;
9108;SDS011;4590;51.462;6.692;2022-09-23T03:12:11;2.60;;;1.30;;
9108;SDS011;4590;51.462;6.692;2022-09-23T03:14:46;3.30;;;1.25;;
9108;SDS011;4590;51.462;6.692;2022-09-23T03:17:20;2.88;;;1.27;;
9108;SDS011;4590;51.462;6.692;2022-09-23T03:20:03;2.45;;;1.23;;
9108;SDS011;4590;51.462;6.692;2022-09-23T03:22:34;2.78;;;1.40;;
9108;SDS011;4590;51.462;6.692;2022-09-23T03:25:07;2.42;;;1.30;;
9108;SDS011;4590;51.462;6.692;2022-09-23T03:27:40;3.67;;;1.48;;
9108;SDS011;4590;51.462;6.692;2022-09-23T03:30:07;2.45;;;1.30;;
9108;SDS011;4590;51.462;6.692;2022-09-23T03:32:33;2.83;;;1.30;;
9108;SDS011;4590;51.462;6.692;2022-09-23T03:35:01;2.88;;;1.75;;
9108;SDS011;4590;51.462;6.692;2022-09-23T03:37:32;2.63;;;1.30;;
9108;SDS011;4590;51.462;6.692;2022-09-23T03:43:05;2.50;;;1.10;;
9108;SDS011;4590;51.462;6.692;2022-09-23T03:45:32;2.58;;;1.20;;
9108;SDS011;4590;51.462;6.692;2022-09-23T03:47:58;3.45;;;1.33;;
9108;SDS011;4590;51.462;6.692;2022-09-23T03:50:24;3.15;;;1.38;;
9108;SDS011;4590;51.462;6.692;2022-09-23T03:52:50;2.50;;;1.25;;
9108;SDS011;4590;51.462;6.692;2022-09-23T03:55:16;2.50;;;1.27;;
9108;SDS011;4590;51.462;6.692;2022-09-23T03:57:43;2.67;;;1.30;;
9108;SDS011;4590;51.462;6.692;2022-09-23T04:00:09;2.38;;;1.35;;
9108;SDS011;4590;51.462;6.692;2022-09-23T04:05:00;3.47;;;1.40;;
9108;SDS011;4590;51.462;6.692;2022-09-23T04:07:26;2.80;;;1.20;;
9108;SDS011;4590;51.462;6.692;2022-09-23T04:09:51;2.77;;;1.30;;
9108;SDS011;4590;51.462;6.692;2022-09-23T04:12:16;3.42;;;1.75;;
9108;SDS011;4590;51.462;6.692;2022-09-23T04:14:42;2.33;;;1.20;;
9108;SDS011;4590;51.462;6.692;2022-09-23T04:17:08;5.90;;;1.80;;
9108;SDS011;4590;51.462;6.692;2022-09-23T04:19:34;3.30;;;1.80;;
9108;SDS011;4590;51.462;6.692;2022-09-23T04:21:59;3.47;;;1.83;;
9108;SDS011;4590;51.462;6.692;2022-09-23T04:24:24;3.13;;;1.70;;
9108;SDS011;4590;51.462;6.692;2022-09-23T04:26:53;4.60;;;1.83;;
9108;SDS011;4590;51.462;6.692;2022-09-23T04:29:20;5.65;;;2.28;;
9108;SDS011;4590;51.462;6.692;2022-09-23T04:31:47;3.03;;;2.00;;
9108;SDS011;4590;51.462;6.692;2022-09-23T04:34:13;4.10;;;1.80;;
9108;SDS011;4590;51.462;6.692;2022-09-23T04:36:40;4.13;;;2.20;;
9108;SDS011;4590;51.462;6.692;2022-09-23T04:39:06;4.93;;;1.98;;
9108;SDS011;4590;51.462;6.692;2022-09-23T04:41:32;4.10;;;1.80;;
9108;SDS011;4590;51.462;6.692;2022-09-23T04:43:57;5.90;;;2.20;;
9108;SDS011;4590;51.462;6.692;2022-09-23T04:46:23;3.70;;;1.83;;
9108;SDS011;4590;51.462;6.692;2022-09-23T04:48:48;5.88;;;2.38;;
9108;SDS011;4590;51.462;6.692;2022-09-23T04:51:14;2.80;;;1.63;;
9108;SDS011;4590;51.462;6.692;2022-09-23T04:53:42;3.78;;;1.90;;
9108;SDS011;4590;51.462;6.692;2022-09-23T04:56:09;3.75;;;1.65;;
9108;SDS011;4590;51.462;6.692;2022-09-23T04:58:39;2.47;;;1.48;;
9108;SDS011;4590;51.462;6.692;2022-09-23T05:01:12;5.00;;;1.85;;
9108;SDS011;4590;51.462;6.692;2022-09-23T05:03:39;2.70;;;1.40;;
9108;SDS011;4590;51.462;6.692;2022-09-23T05:06:06;5.65;;;1.45;;
9108;SDS011;4590;51.462;6.692;2022-09-23T05:08:32;3.53;;;1.58;;
9108;SDS011;4590;51.462;6.692;2022-09-23T05:10:59;4.78;;;1.90;;
9108;SDS011;4590;51.462;6.692;2022-09-23T05:13:28;3.60;;;1.40;;
9108;SDS011;4590;51.462;6.692;2022-09-23T05:16:01;4.07;;;1.73;;
9108;SDS011;4590;51.462;6.692;2022-09-23T05:18:32;3.40;;;1.35;;
9108;SDS011;4590;51.462;6.692;2022-09-23T05:20:58;3.08;;;1.58;;
9108;SDS011;4590;51.462;6.692;2022-09-23T05:23:25;4.20;;;1.70;;
9108;SDS011;4590;51.462;6.692;2022-09-23T05:28:23;3.03;;;1.38;;
9108;SDS011;4590;51.462;6.692;2022-09-23T05:30:50;4.63;;;1.80;;
9108;SDS011;4590;51.462;6.692;2022-09-23T05:33:15;3.30;;;1.60;;
9108;SDS011;4590;51.462;6.692;2022-09-23T05:35:45;3.83;;;1.90;;
9108;SDS011;4590;51.462;6.692;2022-09-23T05:38:11;2.40;;;1.52;;
9108;SDS011;4590;51.462;6.692;2022-09-23T05:40:36;4.57;;;1.73;;
9108;SDS011;4590;51.462;6.692;2022-09-23T05:43:01;3.17;;;1.70;;
9108;SDS011;4590;51.462;6.692;2022-09-23T05:45:27;7.97;;;2.40;;
9108;SDS011;4590;51.462;6.692;2022-09-23T05:47:52;4.20;;;1.80;;
9108;SDS011;4590;51.462;6.692;2022-09-23T05:50:17;3.17;;;2.30;;
9108;SDS011;4590;51.462;6.692;2022-09-23T05:52:43;5.60;;;2.17;;
9108;SDS011;4590;51.462;6.692;2022-09-23T05:55:08;6.73;;;2.20;;
9108;SDS011;4590;51.462;6.692;2022-09-23T05:57:33;4.17;;;1.53;;
9108;SDS011;4590;51.462;6.692;2022-09-23T05:59:58;2.30;;;1.77;;
9108;SDS011;4590;51.462;6.692;2022-09-23T06:02:24;4.37;;;2.47;;
9108;SDS011;4590;51.462;6.692;2022-09-23T06:04:49;4.20;;;1.80;;
9108;SDS011;4590;51.462;6.692;2022-09-23T06:07:14;5.00;;;1.63;;
9108;SDS011;4590;51.462;6.692;2022-09-23T06:09:40;2.83;;;1.40;;
9108;SDS011;4590;51.462;6.692;2022-09-23T06:12:06;4.70;;;2.15;;
9108;SDS011;4590;51.462;6.692;2022-09-23T06:14:31;4.97;;;1.90;;
9108;SDS011;4590;51.462;6.692;2022-09-23T06:16:56;3.67;;;2.10;;
9108;SDS011;4590;51.462;6.692;2022-09-23T06:19:22;3.30;;;2.07;;
9108;SDS011;4590;51.462;6.692;2022-09-23T06:21:47;2.63;;;1.50;;
9108;SDS011;4590;51.462;6.692;2022-09-23T06:24:13;3.88;;;1.88;;
9108;SDS011;4590;51.462;6.692;2022-09-23T06:26:38;3.50;;;1.83;;
9108;SDS011;4590;51.462;6.692;2022-09-23T06:29:08;3.23;;;1.80;;
9108;SDS011;4590;51.462;6.692;2022-09-23T06:31:34;5.13;;;1.67;;
9108;SDS011;4590;51.462;6.692;2022-09-23T06:34:00;4.97;;;2.13;;
9108;SDS011;4590;51.462;6.692;2022-09-23T06:36:25;7.97;;;2.20;;
9108;SDS011;4590;51.462;6.692;2022-09-23T06:38:50;4.50;;;2.20;;
9108;SDS011;4590;51.462;6.692;2022-09-23T06:41:16;4.13;;;2.00;;
9108;SDS011;4590;51.462;6.692;2022-09-23T06:43:41;4.28;;;2.08;;
9108;SDS011;4590;51.462;6.692;2022-09-23T06:46:07;4.23;;;2.10;;
9108;SDS011;4590;51.462;6.692;2022-09-23T06:48:33;5.05;;;1.90;;
9108;SDS011;4590;51.462;6.692;2022-09-23T06:51:00;5.65;;;2.30;;
9108;SDS011;4590;51.462;6.692;2022-09-23T06:53:27;4.72;;;2.22;;
9108;SDS011;4590;51.462;6.692;2022-09-23T06:56:06;5.82;;;2.40;;
9108;SDS011;4590;51.462;6.692;2022-09-23T06:58:35;4.55;;;2.38;;
9108;SDS011;4590;51.462;6.692;2022-09-23T07:01:03;8.73;;;2.40;;
9108;SDS011;4590;51.462;6.692;2022-09-23T07:03:31;5.45;;;2.67;;
9108;SDS011;4590;51.462;6.692;2022-09-23T07:05:57;8.63;;;2.80;;
9108;SDS011;4590;51.462;6.692;2022-09-23T07:08:24;6.82;;;2.67;;
9108;SDS011;4590;51.462;6.692;2022-09-23T07:10:51;5.53;;;2.97;;
9108;SDS011;4590;51.462;6.692;2022-09-23T07:15:47;8.90;;;2.43;;
9108;SDS011;4590;51.462;6.692;2022-09-23T07:18:13;9.75;;;3.70;;
9108;SDS011;4590;51.462;6.692;2022-09-23T07:20:38;8.07;;;3.43;;
9108;SDS011;4590;51.462;6.692;2022-09-23T07:23:03;6.93;;;3.30;;
9108;SDS011;4590;51.462;6.692;2022-09-23T07:25:29;8.05;;;3.90;;
9108;SDS011;4590;51.462;6.692;2022-09-23T07:27:58;9.43;;;3.90;;
9108;SDS011;4590;51.462;6.692;2022-09-23T07:30:23;10.20;;;4.40;;
9108;SDS011;4590;51.462;6.692;2022-09-23T07:32:48;8.50;;;4.17;;
9108;SDS011;4590;51.462;6.692;2022-09-23T07:35:14;11.37;;;4.20;;
9108;SDS011;4590;51.462;6.692;2022-09-23T07:37:39;14.77;;;5.33;;
9108;SDS011;4590;51.462;6.692;2022-09-23T07:40:04;14.37;;;5.80;;
9108;SDS011;4590;51.462;6.692;2022-09-23T07:42:30;13.30;;;6.40;;
9108;SDS011;4590;51.462;6.692;2022-09-23T07:44:55;13.00;;;5.30;;
9108;SDS011;4590;51.462;6.692;2022-09-23T07:47:20;11.27;;;5.07;;
9108;SDS011;4590;51.462;6.692;2022-09-23T07:49:47;11.60;;;5.20;;
9108;SDS011;4590;51.462;6.692;2022-09-23T07:52:12;11.93;;;4.30;;
9108;SDS011;4590;51.462;6.692;2022-09-23T07:54:38;9.33;;;4.33;;
9108;SDS011;4590;51.462;6.692;2022-09-23T07:57:03;8.70;;;4.23;;
9108;SDS011;4590;51.462;6.692;2022-09-23T07:59:28;7.43;;;3.63;;
9108;SDS011;4590;51.462;6.692;2022-09-23T08:01:54;8.87;;;3.83;;
9108;SDS011;4590;51.462;6.692;2022-09-23T08:04:25;8.77;;;3.50;;
9108;SDS011;4590;51.462;6.692;2022-09-23T08:06:54;7.38;;;3.10;;
9108;SDS011;4590;51.462;6.692;2022-09-23T08:09:22;7.40;;;3.15;;
9108;SDS011;4590;51.462;6.692;2022-09-23T08:11:53;5.03;;;2.83;;
9108;SDS011;4590;51.462;6.692;2022-09-23T08:14:19;5.55;;;2.95;;
9108;SDS011;4590;51.462;6.692;2022-09-23T08:16:46;5.05;;;2.55;;
9108;SDS011;4590;51.462;6.692;2022-09-23T08:19:11;5.15;;;2.50;;
9108;SDS011;4590;51.462;6.692;2022-09-23T08:21:37;5.23;;;2.43;;
9108;SDS011;4590;51.462;6.692;2022-09-23T08:26:42;5.38;;;2.40;;
9108;SDS011;4590;51.462;6.692;2022-09-23T08:29:10;6.38;;;2.80;;
9108;SDS011;4590;51.462;6.692;2022-09-23T08:31:40;8.43;;;3.60;;
9108;SDS011;4590;51.462;6.692;2022-09-23T08:34:05;7.63;;;3.43;;
9108;SDS011;4590;51.462;6.692;2022-09-23T08:36:31;6.20;;;3.30;;
9108;SDS011;4590;51.462;6.692;2022-09-23T08:38:57;6.53;;;3.30;;
9108;SDS011;4590;51.462;6.692;2022-09-23T08:46:39;7.18;;;3.15;;
9108;SDS011;4590;51.462;6.692;2022-09-23T08:49:10;6.72;;;3.05;;
9108;SDS011;4590;51.462;6.692;2022-09-23T08:51:44;8.43;;;3.17;;
9108;SDS011;4590;51.462;6.692;2022-09-23T08:54:12;6.70;;;3.63;;
9108;SDS011;4590;51.462;6.692;2022-09-23T08:56:40;9.18;;;3.42;;
9108;SDS011;4590;51.462;6.692;2022-09-23T08:59:13;9.93;;;3.20;;
9108;SDS011;4590;51.462;6.692;2022-09-23T09:01:46;6.68;;;3.28;;
9108;SDS011;4590;51.462;6.692;2022-09-23T09:07:00;6.55;;;2.88;;
9108;SDS011;4590;51.462;6.692;2022-09-23T09:09:38;5.05;;;2.88;;
9108;SDS011;4590;51.462;6.692;2022-09-23T09:15:10;6.25;;;3.08;;
9108;SDS011;4590;51.462;6.692;2022-09-23T09:23:20;8.13;;;2.80;;
9108;SDS011;4590;51.462;6.692;2022-09-23T09:25:47;5.20;;;2.38;;
9108;SDS011;4590;51.462;6.692;2022-09-23T09:34:04;4.10;;;2.20;;
9108;SDS011;4590;51.462;6.692;2022-09-23T09:36:43;3.47;;;2.00;;
9108;SDS011;4590;51.462;6.692;2022-09-23T09:39:15;6.13;;;2.17;;
9108;SDS011;4590;51.462;6.692;2022-09-23T09:41:43;3.53;;;2.00;;
9108;SDS011;4590;51.462;6.692;2022-09-23T09:47:15;3.28;;;1.98;;
9108;SDS011;4590;51.462;6.692;2022-09-23T09:52:28;5.53;;;2.20;;
9108;SDS011;4590;51.462;6.692;2022-09-23T09:57:38;3.97;;;2.25;;
9108;SDS011;4590;51.462;6.692;2022-09-23T10:02:50;3.05;;;1.90;;
9108;SDS011;4590;51.462;6.692;2022-09-23T10:05:29;2.65;;;1.80;;
9108;SDS011;4590;51.462;6.692;2022-09-23T10:08:13;3.85;;;2.15;;
9108;SDS011;4590;51.462;6.692;2022-09-23T10:10:53;4.10;;;2.20;;
9108;SDS011;4590;51.462;6.692;2022-09-23T10:13:26;3.72;;;2.35;;
9108;SDS011;4590;51.462;6.692;2022-09-23T10:15:53;4.10;;;1.90;;
9108;SDS011;4590;51.462;6.692;2022-09-23T10:18:22;5.90;;;2.20;;
9108;SDS011;4590;51.462;6.692;2022-09-23T10:20:58;2.53;;;1.70;;
9108;SDS011;4590;51.462;6.692;2022-09-23T10:23:32;3.22;;;1.65;;
9108;SDS011;4590;51.462;6.692;2022-09-23T10:26:04;3.50;;;2.08;;
9108;SDS011;4590;51.462;6.692;2022-09-23T10:28:48;4.47;;;2.00;;
9108;SDS011;4590;51.462;6.692;2022-09-23T10:33:53;5.65;;;2.13;;
9108;SDS011;4590;51.462;6.692;2022-09-23T10:36:24;4.05;;;1.95;;
9108;SDS011;4590;51.462;6.692;2022-09-23T10:39:02;3.95;;;2.25;;
9108;SDS011;4590;51.462;6.692;2022-09-23T10:44:53;6.50;;;2.13;;
9108;SDS011;4590;51.462;6.692;2022-09-23T10:50:59;6.32;;;2.00;;
9108;SDS011;4590;51.462;6.692;2022-09-23T10:56:15;7.15;;;2.10;;
9108;SDS011;4590;51.462;6.692;2022-09-23T11:04:29;4.30;;;2.30;;
9108;SDS011;4590;51.462;6.692;2022-09-23T11:07:05;8.20;;;2.63;;
9108;SDS011;4590;51.462;6.692;2022-09-23T11:09:44;5.43;;;2.33;;
9108;SDS011;4590;51.462;6.692;2022-09-23T11:12:55;4.85;;;1.92;;
9108;SDS011;4590;51.462;6.692;2022-09-23T11:20:37;4.28;;;2.53;;
9108;SDS011;4590;51.462;6.692;2022-09-23T11:28:50;6.05;;;2.35;;
9108;SDS011;4590;51.462;6.692;2022-09-23T11:31:38;5.40;;;2.80;;
9108;SDS011;4590;51.462;6.692;2022-09-23T11:37:06;7.43;;;2.72;;
9108;SDS011;4590;51.462;6.692;2022-09-23T11:39:44;4.47;;;2.30;;
9108;SDS011;4590;51.462;6.692;2022-09-23T11:42:32;4.47;;;2.05;;
9108;SDS011;4590;51.462;6.692;2022-09-23T11:45:18;4.47;;;1.77;;
9108;SDS011;4590;51.462;6.692;2022-09-23T11:47:57;6.47;;;1.90;;
9108;SDS011;4590;51.462;6.692;2022-09-23T11:50:30;2.83;;;1.90;;
9108;SDS011;4590;51.462;6.692;2022-09-23T11:53:02;5.65;;;1.70;;
9108;SDS011;4590;51.462;6.692;2022-09-23T11:55:38;4.22;;;1.30;;
9108;SDS011;4590;51.462;6.692;2022-09-23T11:58:28;3.08;;;1.40;;
9108;SDS011;4590;51.462;6.692;2022-09-23T12:01:09;3.17;;;1.20;;
9108;SDS011;4590;51.462;6.692;2022-09-23T12:03:45;4.97;;;1.20;;
9108;SDS011;4590;51.462;6.692;2022-09-23T12:06:20;4.32;;;1.88;;
9108;SDS011;4590;51.462;6.692;2022-09-23T12:08:52;3.38;;;1.40;;
9108;SDS011;4590;51.462;6.692;2022-09-23T12:11:29;3.50;;;1.38;;
9108;SDS011;4590;51.462;6.692;2022-09-23T12:14:06;2.70;;;1.50;;
9108;SDS011;4590;51.462;6.692;2022-09-23T12:16:57;2.92;;;1.75;;
9108;SDS011;4590;51.462;6.692;2022-09-23T12:25:48;3.30;;;1.40;;
9108;SDS011;4590;51.462;6.692;2022-09-23T12:28:20;2.70;;;1.25;;
9108;SDS011;4590;51.462;6.692;2022-09-23T12:30:48;3.45;;;1.60;;
9108;SDS011;4590;51.462;6.692;2022-09-23T12:33:24;2.88;;;1.10;;
9108;SDS011;4590;51.462;6.692;2022-09-23T12:36:02;4.32;;;1.50;;
9108;SDS011;4590;51.462;6.692;2022-09-23T12:38:41;3.53;;;1.75;;
9108;SDS011;4590;51.462;6.692;2022-09-23T12:41:18;3.25;;;1.50;;
9108;SDS011;4590;51.462;6.692;2022-09-23T12:43:52;3.17;;;1.33;;
9108;SDS011;4590;51.462;6.692;2022-09-23T12:51:21;2.70;;;1.30;;
9108;SDS011;4590;51.462;6.692;2022-09-23T13:01:10;3.90;;;1.30;;
9108;SDS011;4590;51.462;6.692;2022-09-23T13:03:47;3.28;;;1.20;;
9108;SDS011;4590;51.462;6.692;2022-09-23T13:06:36;2.67;;;1.30;;
9108;SDS011;4590;51.462;6.692;2022-09-23T13:09:09;3.75;;;1.50;;
9108;SDS011;4590;51.462;6.692;2022-09-23T13:11:39;3.13;;;1.50;;
9108;SDS011;4590;51.462;6.692;2022-09-23T13:14:08;3.15;;;1.25;;
9108;SDS011;4590;51.462;6.692;2022-09-23T13:16:40;4.57;;;1.40;;
9108;SDS011;4590;51.462;6.692;2022-09-23T13:26:52;2.90;;;1.40;;
9108;SDS011;4590;51.462;6.692;2022-09-23T13:29:23;2.80;;;1.70;;
9108;SDS011;4590;51.462;6.692;2022-09-23T13:31:54;2.85;;;1.60;;
9108;SDS011;4590;51.462;6.692;2022-09-23T13:34:22;4.15;;;1.65;;
9108;SDS011;4590;51.462;6.692;2022-09-23T13:36:52;3.85;;;1.63;;
9108;SDS011;4590;51.462;6.692;2022-09-23T13:39:22;3.00;;;1.80;;
9108;SDS011;4590;51.462;6.692;2022-09-23T13:41:48;3.47;;;2.08;;
9108;SDS011;4590;51.462;6.692;2022-09-23T13:44:20;4.60;;;1.77;;
9108;SDS011;4590;51.462;6.692;2022-09-23T13:46:58;4.80;;;2.50;;
9108;SDS011;4590;51.462;6.692;2022-09-23T13:49:28;4.53;;;2.40;;
9108;SDS011;4590;51.462;6.692;2022-09-23T13:51:59;3.53;;;1.73;;
9108;SDS011;4590;51.462;6.692;2022-09-23T13:54:30;3.85;;;1.65;;
9108;SDS011;4590;51.462;6.692;2022-09-23T13:57:00;5.57;;;2.00;;
9108;SDS011;4590;51.462;6.692;2022-09-23T13:59:30;2.67;;;1.50;;
9108;SDS011;4590;51.462;6.692;2022-09-23T14:02:11;3.90;;;1.80;;
9108;SDS011;4590;51.462;6.692;2022-09-23T14:04:38;4.47;;;1.60;;
9108;SDS011;4590;51.462;6.692;2022-09-23T14:07:05;3.47;;;1.50;;
9108;SDS011;4590;51.462;6.692;2022-09-23T14:09:31;4.75;;;1.40;;
9108;SDS011;4590;51.462;6.692;2022-09-23T14:12:03;2.55;;;1.40;;
9108;SDS011;4590;51.462;6.692;2022-09-23T14:14:33;5.38;;;1.35;;
9108;SDS011;4590;51.462;6.692;2022-09-23T14:17:01;3.00;;;1.27;;
9108;SDS011;4590;51.462;6.692;2022-09-23T14:19:27;4.93;;;1.40;;
9108;SDS011;4590;51.462;6.692;2022-09-23T14:21:54;2.30;;;1.17;;
9108;SDS011;4590;51.462;6.692;2022-09-23T14:24:30;5.22;;;1.58;;
9108;SDS011;4590;51.462;6.692;2022-09-23T14:27:03;2.45;;;1.10;;
9108;SDS011;4590;51.462;6.692;2022-09-23T14:29:38;3.15;;;1.27;;
9108;SDS011;4590;51.462;6.692;2022-09-23T14:32:06;3.15;;;1.35;;
9108;SDS011;4590;51.462;6.692;2022-09-23T14:37:38;2.17;;;1.17;;
9108;SDS011;4590;51.462;6.692;2022-09-23T14:40:25;3.22;;;1.33;;
9108;SDS011;4590;51.462;6.692;2022-09-23T14:45:39;2.50;;;1.10;;
9108;SDS011;4590;51.462;6.692;2022-09-23T14:48:11;3.35;;;0.98;;
9108;SDS011;4590;51.462;6.692;2022-09-23T14:50:47;4.10;;;1.10;;
9108;SDS011;4590;51.462;6.692;2022-09-23T14:56:06;4.57;;;1.10;;
9108;SDS011;4590;51.462;6.692;2022-09-23T15:01:24;3.47;;;1.23;;
9108;SDS011;4590;51.462;6.692;2022-09-23T15:04:05;2.17;;;1.35;;
9108;SDS011;4590;51.462;6.692;2022-09-23T15:06:36;2.85;;;1.52;;
9108;SDS011;4590;51.462;6.692;2022-09-23T15:09:04;3.00;;;1.20;;
9108;SDS011;4590;51.462;6.692;2022-09-23T15:11:31;3.75;;;1.08;;
9108;SDS011;4590;51.462;6.692;2022-09-23T15:13:58;1.98;;;0.80;;
9108;SDS011;4590;51.462;6.692;2022-09-23T15:16:25;3.33;;;1.10;;
9108;SDS011;4590;51.462;6.692;2022-09-23T15:18:55;2.78;;;1.15;;
9108;SDS011;4590;51.462;6.692;2022-09-23T15:21:22;2.58;;;1.02;;
9108;SDS011;4590;51.462;6.692;2022-09-23T15:26:18;2.15;;;0.90;;
9108;SDS011;4590;51.462;6.692;2022-09-23T15:28:47;2.22;;;1.00;;
9108;SDS011;4590;51.462;6.692;2022-09-23T15:31:13;2.03;;;1.00;;
9108;SDS011;4590;51.462;6.692;2022-09-23T15:33:42;2.58;;;1.05;;
9108;SDS011;4590;51.462;6.692;2022-09-23T15:36:11;3.70;;;1.00;;
9108;SDS011;4590;51.462;6.692;2022-09-23T15:38:43;1.67;;;1.00;;
9108;SDS011;4590;51.462;6.692;2022-09-23T15:41:10;2.67;;;1.00;;
9108;SDS011;4590;51.462;6.692;2022-09-23T15:43:35;2.10;;;0.90;;
9108;SDS011;4590;51.462;6.692;2022-09-23T15:46:05;1.85;;;1.02;;
9108;SDS011;4590;51.462;6.692;2022-09-23T15:48:36;2.05;;;0.88;;
9108;SDS011;4590;51.462;6.692;2022-09-23T15:51:04;3.88;;;0.93;;
9108;SDS011;4590;51.462;6.692;2022-09-23T15:53:31;3.53;;;0.95;;
9108;SDS011;4590;51.462;6.692;2022-09-23T15:55:57;3.58;;;0.90;;
9108;SDS011;4590;51.462;6.692;2022-09-23T15:58:22;2.75;;;0.95;;
9108;SDS011;4590;51.462;6.692;2022-09-23T16:00:50;2.72;;;0.95;;
9108;SDS011;4590;51.462;6.692;2022-09-23T16:03:18;3.28;;;1.13;;
9108;SDS011;4590;51.462;6.692;2022-09-23T16:05:49;1.48;;;0.80;;
9108;SDS011;4590;51.462;6.692;2022-09-23T16:08:15;3.45;;;1.00;;
9108;SDS011;4590;51.462;6.692;2022-09-23T16:10:43;1.70;;;0.93;;
9108;SDS011;4590;51.462;6.692;2022-09-23T16:13:10;5.47;;;1.70;;
9108;SDS011;4590;51.462;6.692;2022-09-23T16:15:37;2.35;;;1.10;;
9108;SDS011;4590;51.462;6.692;2022-09-23T16:18:05;4.38;;;0.93;;
9108;SDS011;4590;51.462;6.692;2022-09-23T16:20:32;1.40;;;0.98;;
9108;SDS011;4590;51.462;6.692;2022-09-23T16:23:21;3.38;;;0.98;;
9108;SDS011;4590;51.462;6.692;2022-09-23T16:25:58;2.85;;;1.15;;
9108;SDS011;4590;51.462;6.692;2022-09-23T16:28:25;3.72;;;1.10;;
9108;SDS011;4590;51.462;6.692;2022-09-23T16:30:50;2.10;;;1.07;;
9108;SDS011;4590;51.462;6.692;2022-09-23T16:33:16;3.97;;;1.08;;
9108;SDS011;4590;51.462;6.692;2022-09-23T16:35:41;3.70;;;1.20;;
9108;SDS011;4590;51.462;6.692;2022-09-23T16:38:07;2.73;;;1.00;;
9108;SDS011;4590;51.462;6.692;2022-09-23T16:40:32;3.35;;;1.00;;
9108;SDS011;4590;51.462;6.692;2022-09-23T16:42:58;3.05;;;1.48;;
9108;SDS011;4590;51.462;6.692;2022-09-23T16:45:26;2.47;;;1.23;;
9108;SDS011;4590;51.462;6.692;2022-09-23T16:47:51;5.15;;;1.17;;
9108;SDS011;4590;51.462;6.692;2022-09-23T16:50:19;2.38;;;1.30;;
9108;SDS011;4590;51.462;6.692;2022-09-23T16:52:46;3.47;;;1.58;;
9108;SDS011;4590;51.462;6.692;2022-09-23T16:55:12;4.18;;;1.30;;
9108;SDS011;4590;51.462;6.692;2022-09-23T17:00:08;2.67;;;1.30;;
9108;SDS011;4590;51.462;6.692;2022-09-23T17:02:56;2.28;;;1.10;;
9108;SDS011;4590;51.462;6.692;2022-09-23T17:05:39;2.35;;;1.30;;
9108;SDS011;4590;51.462;6.692;2022-09-23T17:08:05;2.57;;;1.27;;
9108;SDS011;4590;51.462;6.692;2022-09-23T17:10:31;2.85;;;1.40;;
9108;SDS011;4590;51.462;6.692;2022-09-23T17:12:57;3.90;;;1.65;;
9108;SDS011;4590;51.462;6.692;2022-09-23T17:15:22;3.55;;;1.42;;
9108;SDS011;4590;51.462;6.692;2022-09-23T17:17:48;4.73;;;1.90;;
9108;SDS011;4590;51.462;6.692;2022-09-23T17:20:13;2.80;;;1.57;;
9108;SDS011;4590;51.462;6.692;2022-09-23T17:22:39;3.57;;;1.57;;
9108;SDS011;4590;51.462;6.692;2022-09-23T17:25:05;3.40;;;1.67;;
9108;SDS011;4590;51.462;6.692;2022-09-23T17:29:56;4.07;;;1.73;;
9108;SDS011;4590;51.462;6.692;2022-09-23T17:32:22;4.40;;;1.88;;
9108;SDS011;4590;51.462;6.692;2022-09-23T17:34:48;5.13;;;1.67;;
9108;SDS011;4590;51.462;6.692;2022-09-23T17:37:13;3.93;;;2.00;;
9108;SDS011;4590;51.462;6.692;2022-09-23T17:39:38;2.23;;;1.53;;
9108;SDS011;4590;51.462;6.692;2022-09-23T17:42:05;3.65;;;1.58;;
9108;SDS011;4590;51.462;6.692;2022-09-23T17:44:30;3.80;;;1.70;;
9108;SDS011;4590;51.462;6.692;2022-09-23T17:46:57;4.93;;;2.13;;
9108;SDS011;4590;51.462;6.692;2022-09-23T17:49:22;3.53;;;2.03;;
9108;SDS011;4590;51.462;6.692;2022-09-23T17:51:48;4.32;;;2.10;;
9108;SDS011;4590;51.462;6.692;2022-09-23T17:54:14;4.25;;;1.95;;
9108;SDS011;4590;51.462;6.692;2022-09-23T17:56:39;5.45;;;2.65;;
9108;SDS011;4590;51.462;6.692;2022-09-23T17:59:05;5.35;;;2.22;;
9108;SDS011;4590;51.462;6.692;2022-09-23T18:01:34;5.32;;;2.92;;
9108;SDS011;4590;51.462;6.692;2022-09-23T18:04:00;5.47;;;3.50;;
9108;SDS011;4590;51.462;6.692;2022-09-23T18:06:27;5.18;;;3.38;;
9108;SDS011;4590;51.462;6.692;2022-09-23T18:08:56;6.90;;;3.40;;
9108;SDS011;4590;51.462;6.692;2022-09-23T18:11:23;6.15;;;3.33;;
9108;SDS011;4590;51.462;6.692;2022-09-23T18:13:51;6.07;;;2.90;;
9108;SDS011;4590;51.462;6.692;2022-09-23T18:16:26;3.55;;;2.75;;
9108;SDS011;4590;51.462;6.692;2022-09-23T18:18:53;5.03;;;2.17;;